Time;durP1;ratioP1;P1;durP2;ratioP2;P2;SDS_P1;SDS_P2;PMS_P1;PMS_P2;Temp;Humidity;BMP_temperature;BMP_pressure;BME280_temperature;BME280_humidity;BME280_pressure;Samples;Min_cycle;Max_cycle;Signal;HPM_P1;HPM_P2
2023/09/08 08:42:42;;;;;;;;;;;;;;;;;;5058324;27;2017117;-78
2023/09/08 08:45:07;;;;;;;;;;;;;;;;;;5082755;28;19913;-84
2023/09/08 08:47:33;;;;;;;;;;;;;;;;;;5114161;28;20383;-82
2023/09/08 08:49:59;;;;;;;;;;;;;;;;;;5100139;28;20221;-84
2023/09/08 08:52:25;;;;;;;;;;;;;;;;;;5100880;28;19916;-80
2023/09/08 08:54:51;;;;;;;;;;;;;;;;;;5098414;28;19913;-81
2023/09/08 08:57:17;;;;;;;;;;;;;;;;;;5100068;28;19955;-81
2023/09/08 08:59:43;;;;;;;;;;;;;;;;;;5094908;28;19953;-79
2023/09/08 09:02:09;;;;;;;;;;;;;;;;;;5106383;28;19916;-79
2023/09/08 09:04:35;;;;;;;;;;;;;;;;;;5084279;28;19917;-79
2023/09/08 09:07:01;;;;;;;;;;;;;;;;;;5104091;28;20232;-82
2023/09/08 09:09:27;;;;;;;;;;;;;;;;;;5095224;28;19951;-79
2023/09/08 09:11:53;;;;;;;;;;;;;;;;;;5101494;28;20369;-81
2023/09/08 09:14:19;;;;;;;;;;;;;;;;;;5102191;28;19915;-80
2023/09/08 09:16:45;;;;;;;;;;;;;;;;;;5087330;28;19913;-79
2023/09/08 09:19:11;;;;;;;;;;;;;;;;;;5102593;28;19908;-80
2023/09/08 09:21:37;;;;;;;;;;;;;;;;;;5102928;28;19916;-78
2023/09/08 09:24:03;;;;;;;;;;;;;;;;;;5102992;28;20360;-80
2023/09/08 09:26:29;;;;;;;;;;;;;;;;;;5096695;28;19936;-79
2023/09/08 09:28:55;;;;;;;;;;;;;;;;;;5091969;28;19932;-78
2023/09/08 09:31:20;;;;;;;;;;;;;;;;;;5088480;28;19913;-79
2023/09/08 09:33:46;;;;;;;;;;;;;;;;;;5092267;28;19977;-78
2023/09/08 09:36:12;;;;;;;;;;;;;;;;;;5097120;28;20368;-80
2023/09/08 09:38:38;;;;;;;;;;;;;;;;;;5098862;28;19912;-78
2023/09/08 09:41:05;;;;;;;;;;;;;;;;;;5091030;28;20421;-78
2023/09/08 09:43:31;;;;;;;;;;;;;;;;;;5105055;28;19912;-76
2023/09/08 09:45:57;;;;;;;;;;;;;;;;;;5079807;28;19912;-77
2023/09/08 09:48:23;;;;;;;;;;;;;;;;;;5079836;28;20342;-76
2023/09/08 09:50:49;;;;;;;;;;;;;;;;;;5085143;28;19912;-76
2023/09/08 09:53:15;;;;;;;;;;;;;;;;;;5074480;28;20012;-77
2023/09/08 09:55:41;;;;;;;;;;;;;;;;;;5080339;28;19912;-77
2023/09/08 09:58:07;;;;;;;;;;;;;;;;;;5078429;28;20399;-77
2023/09/08 10:00:33;;;;;;;;;;;;;;;;;;5099924;28;19992;-77
2023/09/08 10:02:59;;;;;;;;;;;;;;;;;;5065587;28;19920;-75
2023/09/08 10:05:25;;;;;;;;;;;;;;;;;;5098358;28;19916;-76
2023/09/08 10:07:51;;;;;;;;;;;;;;;;;;5100855;28;19959;-77
2023/09/08 10:10:16;;;;;;;;;;;;;;;;;;5101431;28;19963;-77
2023/09/08 10:12:42;;;;;;;;;;;;;;;;;;5100733;28;20027;-75
2023/09/08 10:15:08;;;;;;;;;;;;;;;;;;5075815;28;19920;-75
2023/09/08 10:17:34;;;;;;;;;;;;;;;;;;5083133;28;19932;-76
2023/09/08 10:20:00;;;;;;;;;;;;;;;;;;5081415;28;20046;-76
2023/09/08 10:22:26;;;;;;;;;;;;;;;;;;5081797;28;19916;-77
2023/09/08 10:24:52;;;;;;;;;;;;;;;;;;5085124;28;19920;-76
2023/09/08 10:27:20;;;;;;;;;;;;;;;;;;5081437;28;19915;-76
2023/09/08 10:29:46;;;;;;;;;;;;;;;;;;5090298;28;19960;-77
2023/09/08 10:32:11;;;;;;;;;;;;;;;;;;5075725;28;20018;-77
2023/09/08 10:34:38;;;;;;;;;;;;;;;;;;5065964;28;19939;-76
2023/09/08 10:37:04;;;;;;;;;;;;;;;;;;5073875;28;19947;-75
2023/09/08 10:39:38;;;;;;;;;;;;;;;;;;5077689;28;20010;-76
2023/09/08 10:42:04;;;;;;;;;;;;;;;;;;5096285;28;19952;-75
2023/09/08 10:44:32;;;;;;;;;;;;;;;;;;5081545;28;19967;-75
2023/09/08 10:46:58;;;;;;;;;;;;;;;;;;5101044;28;20598;-76
2023/09/08 10:49:24;;;;;;;;;;;;;;;;;;5090096;28;19912;-75
2023/09/08 10:51:50;;;;;;;;;;;;;;;;;;5076557;28;19963;-75
2023/09/08 10:54:15;;;;;;;;;;;;;;;;;;5074666;28;19916;-75
2023/09/08 10:56:41;;;;;;;;;;;;;;;;;;5080264;28;19916;-76
2023/09/08 10:59:07;;;;;;;;;;;;;;;;;;5100248;28;19970;-74
2023/09/08 11:01:33;;;;;;;;;;;;;;;;;;5076666;28;19912;-75
2023/09/08 11:04:00;;;;;;;;;;;;;;;;;;5091422;28;20386;-76
2023/09/08 11:06:30;;;;;;;;;;;;;;;;;;5070350;28;19920;-76
2023/09/08 11:08:56;;;;;;;;;;;;;;;;;;5075824;28;19999;-75
2023/09/08 11:11:22;;;;;;;;;;;;;;;;;;5069917;28;20046;-75
2023/09/08 11:13:48;;;;;;;;;;;;;;;;;;5065142;28;19917;-74
2023/09/08 11:16:14;;;;;;;;;;;;;;;;;;5069516;28;20065;-74
2023/09/08 11:18:42;;;;;;;;;;;;;;;;;;5082264;28;19941;-74
2023/09/08 11:21:08;;;;;;;;;;;;;;;;;;5083636;28;20061;-76
2023/09/08 11:23:34;;;;;;;;;;;;;;;;;;5087609;28;19990;-75
2023/09/08 11:26:00;;;;;;;;;;;;;;;;;;5080234;28;20364;-75
2023/09/08 11:28:26;;;;;;;;;;;;;;;;;;5064604;28;19912;-75
2023/09/08 11:30:52;;;;;;;;;;;;;;;;;;5100472;27;19912;-75
2023/09/08 11:33:18;;;;;;;;;;;;;;;;;;5099272;28;19912;-76
2023/09/08 11:35:44;;;;;;;;;;;;;;;;;;5076730;28;19912;-75
2023/09/08 11:38:10;;;;;;;;;;;;;;;;;;5100247;28;19948;-75
2023/09/08 11:40:36;;;;;;;;;;;;;;;;;;5095581;28;19920;-75
2023/09/08 11:43:02;;;;;;;;;;;;;;;;;;5069806;28;19985;-76
2023/09/08 11:45:29;;;;;;;;;;;;;;;;;;5069548;28;20745;-75
2023/09/08 11:47:54;;;;;;;;;;;;;;;;;;5081345;28;20255;-75
2023/09/08 11:50:20;;;;;;;;;;;;;;;;;;5090044;28;19932;-75
2023/09/08 11:52:46;;;;;;;;;;;;;;;;;;5090919;28;19912;-75
2023/09/08 11:55:13;;;;;;;;;;;;;;;;;;5071462;28;19923;-75
2023/09/08 11:57:38;;;;;;;;;;;;;;;;;;5074772;28;20364;-74
2023/09/08 12:00:05;;;;;;;;;;;;;;;;;;5080571;28;19970;-75
2023/09/08 12:02:31;;;;;;;;;;;;;;;;;;5093896;28;19927;-76
2023/09/08 12:04:57;;;;;;;;;;;;;;;;;;5099260;28;19912;-75
2023/09/08 12:07:23;;;;;;;;;;;;;;;;;;5083813;28;19919;-75
2023/09/08 12:09:48;;;;;;;;;;;;;;;;;;5074863;28;19942;-75
2023/09/08 12:12:14;;;;;;;;;;;;;;;;;;5077755;28;19912;-75
2023/09/08 12:14:40;;;;;;;;;;;;;;;;;;5086787;28;20022;-75
2023/09/08 12:17:07;;;;;;;;;;;;;;;;;;5063571;28;20010;-76
2023/09/08 12:19:33;;;;;;;;;;;;;;;;;;5078118;28;20269;-75
2023/09/08 12:21:59;;;;;;;;;;;;;;;;;;5085685;28;19921;-74
2023/09/08 12:24:25;;;;;;;;;;;;;;;;;;5074742;28;20067;-74
2023/09/08 12:26:51;;;;;;;;;;;;;;;;;;5102710;27;20268;-75
2023/09/08 12:29:17;;;;;;;;;;;;;;;;;;5068171;28;20031;-74
2023/09/08 12:31:43;;;;;;;;;;;;;;;;;;5080655;28;20320;-74
2023/09/08 12:34:09;;;;;;;;;;;;;;;;;;5087607;28;19912;-74
2023/09/08 12:36:35;;;;;;;;;;;;;;;;;;5063276;28;19995;-74
2023/09/08 12:39:00;;;;;;;;;;;;;;;;;;5079570;28;20030;-74
2023/09/08 12:41:26;;;;;;;;;;;;;;;;;;5077101;28;20393;-74
2023/09/08 12:43:52;;;;;;;;;;;;;;;;;;5098822;28;20362;-75
2023/09/08 12:46:18;;;;;;;;;;;;;;;;;;5070244;28;19931;-78
2023/09/08 12:48:44;;;;;;;;;;;;;;;;;;5083902;28;19977;-77
2023/09/08 12:51:10;;;;;;;;;;;;;;;;;;5086331;28;20030;-77
2023/09/08 12:53:36;;;;;;;;;;;;;;;;;;5109985;28;19908;-77
2023/09/08 12:56:02;;;;;;;;;;;;;;;;;;5077503;28;19912;-76
2023/09/08 12:58:28;;;;;;;;;;;;;;;;;;5084414;28;20007;-77
2023/09/08 13:00:54;;;;;;;;;;;;;;;;;;5073244;28;19912;-77
2023/09/08 13:03:20;;;;;;;;;;;;;;;;;;5077632;28;19931;-77
2023/09/08 13:05:46;;;;;;;;;;;;;;;;;;5075680;28;20357;-77
2023/09/08 13:08:15;;;;;;;;;;;;;;;;;;5098062;28;20276;-77
2023/09/08 13:10:40;;;;;;;;;;;;;;;;;;5065122;28;19928;-78
2023/09/08 13:13:06;;;;;;;;;;;;;;;;;;5069684;28;19912;-78
2023/09/08 13:18:19;;;;;;;;;;;;;;;;;;5078002;28;20004;-80
2023/09/08 13:20:45;;;;;;;;;;;;;;;;;;5074814;28;19916;-81
2023/09/08 13:23:11;;;;;;;;;;;;;;;;;;5071109;28;19965;-79
2023/09/08 13:25:36;;;;;;;;;;;;;;;;;;5094487;28;20444;-80
2023/09/08 13:28:03;;;;;;;;;;;;;;;;;;5075621;28;19912;-80
2023/09/08 13:30:29;;;;;;;;;;;;;;;;;;5080893;28;20394;-81
2023/09/08 13:32:55;;;;;;;;;;;;;;;;;;5109362;27;20362;-81
2023/09/08 13:35:21;;;;;;;;;;;;;;;;;;5112186;27;19934;-80
2023/09/08 13:37:47;;;;;;;;;;;;;;;;;;5105050;27;20408;-78
2023/09/08 13:40:14;;;;;;;;;;;;;;;;;;5102077;28;19942;-78
2023/09/08 13:42:40;;;;;;;;;;;;;;;;;;5085604;28;19928;-78
2023/09/08 13:45:06;;;;;;;;;;;;;;;;;;5079747;28;19912;-80
2023/09/08 13:47:31;;;;;;;;;;;;;;;;;;5083557;28;20720;-79
2023/09/08 13:49:57;;;;;;;;;;;;;;;;;;5091139;28;20589;-81
2023/09/08 13:52:23;;;;;;;;;;;;;;;;;;5073725;28;20387;-79
2023/09/08 13:54:49;;;;;;;;;;;;;;;;;;5082645;28;20320;-78
2023/09/08 13:57:15;;;;;;;;;;;;;;;;;;5070059;28;19912;-79
2023/09/08 13:59:41;;;;;;;;;;;;;;;;;;5081872;28;19919;-79
2023/09/08 14:02:07;;;;;;;;;;;;;;;;;;5073951;28;20392;-80
2023/09/08 14:04:33;;;;;;;;;;;;;;;;;;5107023;27;19908;-79
2023/09/08 14:06:59;;;;;;;;;;;;;;;;;;5099589;28;19961;-81
2023/09/08 14:09:26;;;;;;;;;;;;;;;;;;5073158;28;19919;-80
2023/09/08 14:11:51;;;;;;;;;;;;;;;;;;5093387;28;19915;-80
2023/09/08 14:14:17;;;;;;;;;;;;;;;;;;5077914;28;19920;-80
2023/09/08 14:16:43;;;;;;;;;;;;;;;;;;5092921;28;20345;-80
2023/09/08 14:19:09;;;;;;;;;;;;;;;;;;5098290;27;19916;-79
2023/09/08 14:21:37;;;;;;;;;;;;;;;;;;5096113;28;19924;-78
2023/09/08 14:24:03;;;;;;;;;;;;;;;;;;5096123;28;20067;-79
2023/09/08 14:26:28;;;;;;;;;;;;;;;;;;5085843;28;20108;-82
2023/09/08 14:28:54;;;;;;;;;;;;;;;;;;5067909;28;20400;-78
2023/09/08 14:31:20;;;;;;;;;;;;;;;;;;5076579;28;19916;-80
2023/09/08 14:33:46;;;;;;;;;;;;;;;;;;5069120;28;19952;-78
2023/09/08 14:36:12;;;;;;;;;;;;;;;;;;5089120;28;19973;-80
2023/09/08 14:38:38;;;;;;;;;;;;;;;;;;5084628;28;19916;-80
2023/09/08 14:41:04;;;;;;;;;;;;;;;;;;5089727;28;20432;-78
2023/09/08 14:43:30;;;;;;;;;;;;;;;;;;5083398;28;19919;-79
2023/09/08 14:45:59;;;;;;;;;;;;;;;;;;5068897;28;19966;-79
2023/09/08 14:48:25;;;;;;;;;;;;;;;;;;5089014;28;19912;-79
2023/09/08 14:50:51;;;;;;;;;;;;;;;;;;5081565;28;20004;-80
2023/09/08 14:53:17;;;;;;;;;;;;;;;;;;5092212;28;19973;-79
2023/09/08 14:55:44;;;;;;;;;;;;;;;;;;5093768;28;19946;-77
2023/09/08 14:58:11;;;;;;;;;;;;;;;;;;5064575;28;20391;-81
2023/09/08 15:00:37;;;;;;;;;;;;;;;;;;5087967;28;19916;-78
2023/09/08 15:03:04;;;;;;;;;;;;;;;;;;5089217;28;19912;-75
2023/09/08 15:05:30;;;;;;;;;;;;;;;;;;5082473;28;19955;-77
2023/09/08 15:07:56;;;;;;;;;;;;;;;;;;5070983;28;19947;-79
2023/09/08 15:10:22;;;;;;;;;;;;;;;;;;5068991;28;19912;-76
2023/09/08 15:12:48;;;;;;;;;;;;;;;;;;5082183;28;20379;-79
2023/09/08 15:15:14;;;;;;;;;;;;;;;;;;5083083;28;19912;-80
2023/09/08 15:17:40;;;;;;;;;;;;;;;;;;5085154;28;20011;-80
2023/09/08 15:20:06;;;;;;;;;;;;;;;;;;5074965;28;19939;-79
2023/09/08 15:22:32;;;;;;;;;;;;;;;;;;5098969;28;20352;-80
2023/09/08 15:24:58;;;;;;;;;;;;;;;;;;5093267;28;19919;-81
2023/09/08 15:27:24;;;;;;;;;;;;;;;;;;5076111;28;19917;-80
2023/09/08 15:29:49;;;;;;;;;;;;;;;;;;5095440;28;19923;-81
2023/09/08 15:32:15;;;;;;;;;;;;;;;;;;5081457;28;19944;-81
2023/09/08 15:34:43;;;;;;;;;;;;;;;;;;5079420;28;19984;-77
2023/09/08 15:37:09;;;;;;;;;;;;;;;;;;5064884;28;19915;-80
2023/09/08 15:39:35;;;;;;;;;;;;;;;;;;5069377;28;20053;-79
2023/09/08 15:42:01;;;;;;;;;;;;;;;;;;5090700;28;19924;-80
2023/09/08 15:44:27;;;;;;;;;;;;;;;;;;5077105;28;20271;-80
2023/09/08 15:46:53;;;;;;;;;;;;;;;;;;5090975;28;20027;-80
2023/09/08 15:49:18;;;;;;;;;;;;;;;;;;5076505;28;20343;-79
2023/09/08 15:51:44;;;;;;;;;;;;;;;;;;5093092;28;19908;-81
2023/09/08 15:54:12;;;;;;;;;;;;;;;;;;5071819;28;20356;-79
2023/09/08 15:56:37;;;;;;;;;;;;;;;;;;5071823;28;19931;-79
2023/09/08 15:59:03;;;;;;;;;;;;;;;;;;5098044;28;19911;-79
2023/09/08 16:01:29;;;;;;;;;;;;;;;;;;5080971;28;19916;-79
2023/09/08 16:03:55;;;;;;;;;;;;;;;;;;5098059;27;19942;-78
2023/09/08 16:06:21;;;;;;;;;;;;;;;;;;5087303;28;19917;-81
2023/09/08 16:08:47;;;;;;;;;;;;;;;;;;5089580;28;19935;-78
2023/09/08 16:11:13;;;;;;;;;;;;;;;;;;5069923;28;19908;-81
2023/09/08 16:13:39;;;;;;;;;;;;;;;;;;5096499;28;20004;-78
2023/09/08 16:16:05;;;;;;;;;;;;;;;;;;5070728;28;20019;-80
2023/09/08 16:18:31;;;;;;;;;;;;;;;;;;5089226;28;20053;-80
2023/09/08 16:20:57;;;;;;;;;;;;;;;;;;5088558;28;19927;-79
2023/09/08 16:23:23;;;;;;;;;;;;;;;;;;5083256;28;20343;-79
2023/09/08 16:25:49;;;;;;;;;;;;;;;;;;5079210;28;19981;-81
2023/09/08 16:28:15;;;;;;;;;;;;;;;;;;5075858;28;19916;-79
2023/09/08 16:30:41;;;;;;;;;;;;;;;;;;5065699;28;19921;-79
2023/09/08 16:33:07;;;;;;;;;;;;;;;;;;5079754;28;19912;-81
2023/09/08 16:35:32;;;;;;;;;;;;;;;;;;5077376;28;20435;-77
2023/09/08 16:37:58;;;;;;;;;;;;;;;;;;5072765;28;20004;-78
2023/09/08 16:40:25;;;;;;;;;;;;;;;;;;5086981;28;20197;-80
2023/09/08 16:42:51;;;;;;;;;;;;;;;;;;5079350;28;19938;-80
2023/09/08 16:45:17;;;;;;;;;;;;;;;;;;5088072;28;19999;-80
2023/09/08 16:47:43;;;;;;;;;;;;;;;;;;5073988;28;19920;-81
2023/09/08 16:50:09;;;;;;;;;;;;;;;;;;5096169;28;19908;-79
2023/09/08 16:52:35;;;;;;;;;;;;;;;;;;5082844;28;19986;-80
2023/09/08 16:55:01;;;;;;;;;;;;;;;;;;5079584;28;19958;-79
2023/09/08 16:57:27;;;;;;;;;;;;;;;;;;5082637;28;19907;-79
2023/09/08 16:59:53;;;;;;;;;;;;;;;;;;5115688;28;19920;-78
2023/09/08 17:02:19;;;;;;;;;;;;;;;;;;5104005;28;19920;-78
2023/09/08 17:04:45;;;;;;;;;;;;;;;;;;5093254;28;20311;-80
2023/09/08 17:07:12;;;;;;;;;;;;;;;;;;5068625;28;20384;-78
2023/09/08 17:09:38;;;;;;;;;;;;;;;;;;5083862;28;19955;-78
2023/09/08 17:12:06;;;;;;;;;;;;;;;;;;5074596;28;19979;-80
2023/09/08 17:14:33;;;;;;;;;;;;;;;;;;5091536;28;19970;-80
2023/09/08 17:16:59;;;;;;;;;;;;;;;;;;5090562;28;20002;-80
2023/09/08 17:19:25;;;;;;;;;;;;;;;;;;5096983;28;20423;-79
2023/09/08 17:21:51;;;;;;;;;;;;;;;;;;5102338;28;20388;-80
2023/09/08 17:24:17;;;;;;;;;;;;;;;;;;5085335;28;19938;-78
2023/09/08 17:26:43;;;;;;;;;;;;;;;;;;5074228;28;19913;-78
2023/09/08 17:29:09;;;;;;;;;;;;;;;;;;5069794;28;20312;-80
2023/09/08 17:31:35;;;;;;;;;;;;;;;;;;5092239;28;19912;-78
2023/09/08 17:34:01;;;;;;;;;;;;;;;;;;5069992;28;19924;-81
2023/09/08 17:36:27;;;;;;;;;;;;;;;;;;5095814;28;20105;-78
2023/09/08 17:38:53;;;;;;;;;;;;;;;;;;5088328;28;20026;-79
2023/09/08 17:41:18;;;;;;;;;;;;;;;;;;5082641;28;20434;-80
2023/09/08 17:43:46;;;;;;;;;;;;;;;;;;5091616;28;19916;-80
2023/09/08 17:46:12;;;;;;;;;;;;;;;;;;5083912;28;19948;-77
2023/09/08 17:48:39;;;;;;;;;;;;;;;;;;5082835;28;20087;-79
2023/09/08 17:51:05;;;;;;;;;;;;;;;;;;5083845;28;20283;-78
2023/09/08 17:53:35;;;;;;;;;;;;;;;;;;5084562;28;19916;-77
2023/09/08 17:56:01;;;;;;;;;;;;;;;;;;5095147;28;19920;-79
2023/09/08 17:58:26;;;;;;;;;;;;;;;;;;5093769;28;20285;-78
2023/09/08 18:00:52;;;;;;;;;;;;;;;;;;5084094;28;19935;-78
2023/09/08 18:03:18;;;;;;;;;;;;;;;;;;5083566;28;19999;-77
2023/09/08 18:05:44;;;;;;;;;;;;;;;;;;5074917;28;19916;-79
2023/09/08 18:08:11;;;;;;;;;;;;;;;;;;5070690;28;20337;-78
2023/09/08 18:10:37;;;;;;;;;;;;;;;;;;5097927;28;19973;-79
2023/09/08 18:13:03;;;;;;;;;;;;;;;;;;5085033;28;20352;-80
2023/09/08 18:15:29;;;;;;;;;;;;;;;;;;5070223;28;19920;-80
2023/09/08 18:17:55;;;;;;;;;;;;;;;;;;5097570;28;19918;-80
2023/09/08 18:20:21;;;;;;;;;;;;;;;;;;5085692;28;19920;-79
2023/09/08 18:22:47;;;;;;;;;;;;;;;;;;5098507;28;19912;-81
2023/09/08 18:25:13;;;;;;;;;;;;;;;;;;5076486;28;20293;-79
2023/09/08 18:27:39;;;;;;;;;;;;;;;;;;5082899;28;20314;-78
2023/09/08 18:30:05;;;;;;;;;;;;;;;;;;5073398;28;20250;-79
2023/09/08 18:32:33;;;;;;;;;;;;;;;;;;5071491;28;19982;-79
2023/09/08 18:34:59;;;;;;;;;;;;;;;;;;5064858;28;19913;-80
2023/09/08 18:37:25;;;;;;;;;;;;;;;;;;5090570;28;20037;-80
2023/09/08 18:39:51;;;;;;;;;;;;;;;;;;5080893;28;20635;-79
2023/09/08 18:42:16;;;;;;;;;;;;;;;;;;5083556;28;19924;-80
2023/09/08 18:44:42;;;;;;;;;;;;;;;;;;5096675;28;19956;-76
2023/09/08 18:47:08;;;;;;;;;;;;;;;;;;5081858;28;20015;-79
2023/09/08 18:49:34;;;;;;;;;;;;;;;;;;5080701;28;20376;-79
2023/09/08 18:52:00;;;;;;;;;;;;;;;;;;5083029;28;19949;-79
2023/09/08 18:54:29;;;;;;;;;;;;;;;;;;5082797;28;19919;-79
2023/09/08 18:56:55;;;;;;;;;;;;;;;;;;5092334;28;19960;-78
2023/09/08 18:59:21;;;;;;;;;;;;;;;;;;5073093;28;19960;-79
2023/09/08 19:01:47;;;;;;;;;;;;;;;;;;5070205;28;19972;-78
2023/09/08 19:04:13;;;;;;;;;;;;;;;;;;5075214;28;19916;-79
2023/09/08 19:06:39;;;;;;;;;;;;;;;;;;5080621;28;20356;-80
2023/09/08 19:09:05;;;;;;;;;;;;;;;;;;5080975;28;19927;-78
2023/09/08 19:11:31;;;;;;;;;;;;;;;;;;5093679;28;20433;-77
2023/09/08 19:13:56;;;;;;;;;;;;;;;;;;5090840;28;19908;-79
2023/09/08 19:16:22;;;;;;;;;;;;;;;;;;5083525;28;19914;-79
2023/09/08 19:18:49;;;;;;;;;;;;;;;;;;5082061;28;20264;-80
2023/09/08 19:21:15;;;;;;;;;;;;;;;;;;5076489;28;20637;-78
2023/09/08 19:23:40;;;;;;;;;;;;;;;;;;5091778;28;19927;-76
2023/09/08 19:26:07;;;;;;;;;;;;;;;;;;5080980;28;19951;-80
2023/09/08 19:28:32;;;;;;;;;;;;;;;;;;5094484;28;20021;-80
2023/09/08 19:30:58;;;;;;;;;;;;;;;;;;5072557;28;20023;-78
2023/09/08 19:33:24;;;;;;;;;;;;;;;;;;5073226;28;19953;-78
2023/09/08 19:35:50;;;;;;;;;;;;;;;;;;5074594;28;19915;-78
2023/09/08 19:38:19;;;;;;;;;;;;;;;;;;5075267;28;19962;-79
2023/09/08 19:40:47;;;;;;;;;;;;;;;;;;5083537;28;19916;-78
2023/09/08 19:43:13;;;;;;;;;;;;;;;;;;5080451;28;19988;-80
2023/09/08 19:45:39;;;;;;;;;;;;;;;;;;5081450;28;19938;-79
2023/09/08 19:48:05;;;;;;;;;;;;;;;;;;5085237;28;19912;-78
2023/09/08 19:50:30;;;;;;;;;;;;;;;;;;5083982;28;19919;-80
2023/09/08 19:52:56;;;;;;;;;;;;;;;;;;5072643;28;19977;-79
2023/09/08 19:55:22;;;;;;;;;;;;;;;;;;5079136;28;19908;-79
2023/09/08 19:57:49;;;;;;;;;;;;;;;;;;5102422;28;19916;-78
2023/09/08 20:00:15;;;;;;;;;;;;;;;;;;5096897;28;19973;-80
2023/09/08 20:02:41;;;;;;;;;;;;;;;;;;5084856;28;19924;-79
2023/09/08 20:05:07;;;;;;;;;;;;;;;;;;5080895;28;20636;-79
2023/09/08 20:07:33;;;;;;;;;;;;;;;;;;5079571;28;19939;-80
2023/09/08 20:09:59;;;;;;;;;;;;;;;;;;5088830;28;19912;-79
2023/09/08 20:12:25;;;;;;;;;;;;;;;;;;5075533;28;20026;-79
2023/09/08 20:14:51;;;;;;;;;;;;;;;;;;5066557;28;19924;-79
2023/09/08 20:17:17;;;;;;;;;;;;;;;;;;5094188;28;19950;-78
2023/09/08 20:19:43;;;;;;;;;;;;;;;;;;5097855;28;19924;-82
2023/09/08 20:22:09;;;;;;;;;;;;;;;;;;5087625;28;19912;-79
2023/09/08 20:24:34;;;;;;;;;;;;;;;;;;5082115;28;19954;-82
2023/09/08 20:27:00;;;;;;;;;;;;;;;;;;5097006;28;19913;-80
2023/09/08 20:29:28;;;;;;;;;;;;;;;;;;5082625;28;19951;-80
2023/09/08 20:31:56;;;;;;;;;;;;;;;;;;5073364;28;19912;-81
2023/09/08 20:34:22;;;;;;;;;;;;;;;;;;5079667;28;19916;-80
2023/09/08 20:36:48;;;;;;;;;;;;;;;;;;5082890;28;20421;-80
2023/09/08 20:39:14;;;;;;;;;;;;;;;;;;5090575;28;19916;-81
2023/09/08 20:41:40;;;;;;;;;;;;;;;;;;5078693;28;19968;-81
2023/09/08 20:44:06;;;;;;;;;;;;;;;;;;5085169;28;19912;-83
2023/09/08 20:46:32;;;;;;;;;;;;;;;;;;5089472;28;20363;-81
2023/09/08 20:48:57;;;;;;;;;;;;;;;;;;5077548;28;19939;-82
2023/09/08 20:51:23;;;;;;;;;;;;;;;;;;5071182;28;20280;-82
2023/09/08 20:53:49;;;;;;;;;;;;;;;;;;5065441;28;20277;-81
2023/09/08 20:56:15;;;;;;;;;;;;;;;;;;5094186;28;19908;-81
2023/09/08 20:58:41;;;;;;;;;;;;;;;;;;5077806;28;19954;-79
2023/09/08 21:01:07;;;;;;;;;;;;;;;;;;5089606;28;20372;-82
2023/09/08 21:03:33;;;;;;;;;;;;;;;;;;5097323;28;20360;-82
2023/09/08 21:05:59;;;;;;;;;;;;;;;;;;5097631;28;20002;-81
2023/09/08 21:08:25;;;;;;;;;;;;;;;;;;5094872;28;19966;-82
2023/09/08 21:10:51;;;;;;;;;;;;;;;;;;5094594;28;20514;-82
2023/09/08 21:13:17;;;;;;;;;;;;;;;;;;5093844;28;19915;-82
2023/09/08 21:15:43;;;;;;;;;;;;;;;;;;5068330;28;19917;-81
2023/09/08 21:18:09;;;;;;;;;;;;;;;;;;5083817;28;19908;-81
2023/09/08 21:20:35;;;;;;;;;;;;;;;;;;5083251;28;20336;-82
2023/09/08 21:23:02;;;;;;;;;;;;;;;;;;5081001;28;19958;-81
2023/09/08 21:25:28;;;;;;;;;;;;;;;;;;5076980;28;19908;-82
2023/09/08 21:27:55;;;;;;;;;;;;;;;;;;5083485;28;19965;-81
2023/09/08 21:30:21;;;;;;;;;;;;;;;;;;5077985;28;19915;-81
2023/09/08 21:32:46;;;;;;;;;;;;;;;;;;5096058;28;19954;-81
2023/09/08 21:35:12;;;;;;;;;;;;;;;;;;5093177;28;19967;-83
2023/09/08 21:37:38;;;;;;;;;;;;;;;;;;5096692;28;19912;-80
2023/09/08 21:40:04;;;;;;;;;;;;;;;;;;5081398;28;19926;-82
2023/09/08 21:42:30;;;;;;;;;;;;;;;;;;5095898;28;20068;-81
2023/09/08 21:44:56;;;;;;;;;;;;;;;;;;5074528;28;19920;-81
2023/09/08 21:47:22;;;;;;;;;;;;;;;;;;5083616;28;20283;-82
2023/09/08 21:49:48;;;;;;;;;;;;;;;;;;5103081;28;20291;-81
2023/09/08 21:52:14;;;;;;;;;;;;;;;;;;5089270;28;19912;-81
2023/09/08 21:54:40;;;;;;;;;;;;;;;;;;5097267;28;19916;-80
2023/09/08 21:57:06;;;;;;;;;;;;;;;;;;5078960;28;20024;-81
2023/09/08 21:59:32;;;;;;;;;;;;;;;;;;5088476;28;19916;-82
2023/09/08 22:01:58;;;;;;;;;;;;;;;;;;5070415;28;19960;-80
2023/09/08 22:04:24;;;;;;;;;;;;;;;;;;5087022;28;19946;-80
2023/09/08 22:06:52;;;;;;;;;;;;;;;;;;5085767;28;19912;-81
2023/09/08 22:09:18;;;;;;;;;;;;;;;;;;5094334;28;19913;-82
2023/09/08 22:11:44;;;;;;;;;;;;;;;;;;5100139;28;19917;-82
2023/09/08 22:14:10;;;;;;;;;;;;;;;;;;5067782;28;19913;-82
2023/09/08 22:16:36;;;;;;;;;;;;;;;;;;5079621;28;20338;-82
2023/09/08 22:19:03;;;;;;;;;;;;;;;;;;5094408;28;19958;-82
2023/09/08 22:21:29;;;;;;;;;;;;;;;;;;5086811;28;20356;-84
2023/09/08 22:23:54;;;;;;;;;;;;;;;;;;5083355;28;20106;-80
2023/09/08 22:26:20;;;;;;;;;;;;;;;;;;5066013;28;19919;-78
2023/09/08 22:28:46;;;;;;;;;;;;;;;;;;5082180;28;19995;-79
2023/09/08 22:31:12;;;;;;;;;;;;;;;;;;5080307;28;20295;-81
2023/09/08 22:33:38;;;;;;;;;;;;;;;;;;5076649;28;19923;-78
2023/09/08 22:36:04;;;;;;;;;;;;;;;;;;5082538;28;20735;-80
2023/09/08 22:38:31;;;;;;;;;;;;;;;;;;5089664;28;19912;-79
2023/09/08 22:40:57;;;;;;;;;;;;;;;;;;5096333;28;19954;-79
2023/09/08 22:43:23;;;;;;;;;;;;;;;;;;5076740;28;20320;-79
2023/09/08 22:45:49;;;;;;;;;;;;;;;;;;5081062;28;19948;-79
2023/09/08 22:48:17;;;;;;;;;;;;;;;;;;5080578;28;19917;-81
2023/09/08 22:50:43;;;;;;;;;;;;;;;;;;5072629;28;20054;-80
2023/09/08 22:53:10;;;;;;;;;;;;;;;;;;5073424;28;19955;-80
2023/09/08 22:55:36;;;;;;;;;;;;;;;;;;5099435;28;19923;-79
2023/09/08 22:58:03;;;;;;;;;;;;;;;;;;5074114;28;20340;-79
2023/09/08 23:00:29;;;;;;;;;;;;;;;;;;5079804;28;19912;-79
2023/09/08 23:02:54;;;;;;;;;;;;;;;;;;5085682;28;20468;-81
2023/09/08 23:05:20;;;;;;;;;;;;;;;;;;5074895;28;19918;-79
2023/09/08 23:07:46;;;;;;;;;;;;;;;;;;5080696;28;20387;-79
2023/09/08 23:10:12;;;;;;;;;;;;;;;;;;5074782;28;20053;-79
2023/09/08 23:12:38;;;;;;;;;;;;;;;;;;5065575;28;20617;-80
2023/09/08 23:15:04;;;;;;;;;;;;;;;;;;5094262;28;19915;-79
2023/09/08 23:17:30;;;;;;;;;;;;;;;;;;5085261;28;20827;-81
2023/09/08 23:19:56;;;;;;;;;;;;;;;;;;5097000;28;20010;-80
2023/09/08 23:22:21;;;;;;;;;;;;;;;;;;5093265;28;20351;-80
2023/09/08 23:24:47;;;;;;;;;;;;;;;;;;5100184;28;19958;-81
2023/09/08 23:27:13;;;;;;;;;;;;;;;;;;5097917;28;19957;-80
2023/09/08 23:29:39;;;;;;;;;;;;;;;;;;5090645;28;19923;-80
2023/09/08 23:32:05;;;;;;;;;;;;;;;;;;5081419;28;19912;-79
2023/09/08 23:34:33;;;;;;;;;;;;;;;;;;5073964;28;19908;-79
2023/09/08 23:36:59;;;;;;;;;;;;;;;;;;5081764;28;20391;-79
2023/09/08 23:39:25;;;;;;;;;;;;;;;;;;5100613;28;20348;-78
2023/09/08 23:41:51;;;;;;;;;;;;;;;;;;5075171;28;19965;-79
2023/09/08 23:44:16;;;;;;;;;;;;;;;;;;5098307;27;20012;-78
2023/09/08 23:46:42;;;;;;;;;;;;;;;;;;5071225;28;20746;-79
2023/09/08 23:49:08;;;;;;;;;;;;;;;;;;5099845;28;19915;-81
2023/09/08 23:51:34;;;;;;;;;;;;;;;;;;5073195;28;19912;-78
2023/09/08 23:54:00;;;;;;;;;;;;;;;;;;5094349;28;19950;-79
2023/09/08 23:56:26;;;;;;;;;;;;;;;;;;5083982;28;19938;-78
2023/09/08 23:58:52;;;;;;;;;;;;;;;;;;5079434;28;19920;-79
